createdAt,value
2023-11-16T00:00:48.365Z,73.33
2023-11-16T00:03:15.052Z,73.16
2023-11-16T00:05:45.330Z,74.49
2023-11-16T00:08:11.969Z,74.29
2023-11-16T00:10:40.745Z,74.50
2023-11-16T00:13:07.418Z,74.30
2023-11-16T00:15:34.447Z,74.24
2023-11-16T00:18:04.603Z,74.40
2023-11-16T00:20:31.712Z,73.86
2023-11-16T00:22:58.130Z,73.93
2023-11-16T00:25:24.582Z,73.92
2023-11-16T00:27:51.503Z,74.38
2023-11-16T00:30:17.978Z,74.36
2023-11-16T00:32:44.537Z,74.54
2023-11-16T00:35:11.934Z,74.75
2023-11-16T00:37:38.542Z,75.58
2023-11-16T00:40:06.231Z,76.20
2023-11-16T00:42:32.887Z,76.50
2023-11-16T00:44:59.352Z,77.02
2023-11-16T00:47:25.893Z,77.32
2023-11-16T00:49:52.451Z,77.68
2023-11-16T00:52:21.245Z,77.46
2023-11-16T00:54:49.855Z,77.39
2023-11-16T00:57:19.267Z,76.68
2023-11-16T00:59:48.781Z,75.95
2023-11-16T01:02:15.493Z,75.55
2023-11-16T01:04:42.603Z,75.34
2023-11-16T01:07:11.661Z,74.82
2023-11-16T01:09:39.378Z,74.63
2023-11-16T01:12:12.887Z,75.31
2023-11-16T01:14:41.145Z,75.17
2023-11-16T01:17:13.074Z,76.00
2023-11-16T01:19:46.439Z,76.17
2023-11-16T01:22:16.364Z,76.28
2023-11-16T01:24:45.898Z,76.84
2023-11-16T01:27:28.075Z,76.88
2023-11-16T01:29:54.949Z,76.60
2023-11-16T01:32:21.876Z,76.36
2023-11-16T01:34:48.420Z,75.69
2023-11-16T01:37:14.965Z,75.42
2023-11-16T01:39:42.084Z,76.15
2023-11-16T01:42:10.557Z,76.68
2023-11-16T01:44:37.887Z,76.13
2023-11-16T01:47:09.503Z,75.97
2023-11-16T01:49:36.849Z,75.30
2023-11-16T01:52:05.206Z,75.42
2023-11-16T01:54:33.035Z,75.69
2023-11-16T01:57:00.286Z,74.77
2023-11-16T01:59:29.147Z,74.42
2023-11-16T02:01:57.933Z,74.38
2023-11-16T02:04:25.097Z,74.35
2023-11-16T02:06:52.779Z,74.88
2023-11-16T02:09:21.095Z,74.46
2023-11-16T02:11:47.511Z,74.12
2023-11-16T02:14:14.179Z,74.23
2023-11-16T02:16:41.188Z,73.51
2023-11-16T02:19:32.283Z,73.76
2023-11-16T02:22:00.333Z,73.94
2023-11-16T02:24:27.598Z,74.04
2023-11-16T02:26:54.950Z,73.89
2023-11-16T02:29:21.422Z,73.70
2023-11-16T02:31:47.891Z,73.68
2023-11-16T02:34:14.446Z,73.43
2023-11-16T02:36:41.377Z,73.39
2023-11-16T02:39:08.461Z,73.73
2023-11-16T02:41:35.498Z,73.66
2023-11-16T02:44:03.744Z,74.02
2023-11-16T02:46:30.210Z,73.97
2023-11-16T02:48:57.259Z,75.55
2023-11-16T02:51:23.722Z,76.68
2023-11-16T02:53:50.365Z,76.73
2023-11-16T02:56:18.049Z,77.10
2023-11-16T02:58:45.158Z,77.14
2023-11-16T03:01:13.930Z,76.77
2023-11-16T03:03:41.530Z,76.88
2023-11-16T03:06:08.380Z,75.86
2023-11-16T03:08:34.932Z,75.52
2023-11-16T03:11:03.998Z,75.02
2023-11-16T03:13:30.458Z,74.50
2023-11-16T03:15:56.888Z,74.11
2023-11-16T03:18:23.365Z,74.25
2023-11-16T03:20:49.855Z,73.85
2023-11-16T03:23:16.968Z,73.61
2023-11-16T03:25:44.105Z,73.42
2023-11-16T03:28:10.565Z,73.47
2023-11-16T03:30:38.022Z,73.19
2023-11-16T03:33:04.971Z,73.30
2023-11-16T03:35:31.644Z,72.90
2023-11-16T03:37:58.568Z,73.00
2023-11-16T03:40:25.857Z,73.13
2023-11-16T03:42:52.304Z,72.98
2023-11-16T03:45:18.774Z,73.01
2023-11-16T03:47:45.620Z,72.90
2023-11-16T03:50:12.613Z,72.69
2023-11-16T03:52:39.146Z,72.94
2023-11-16T03:55:05.859Z,72.88
2023-11-16T03:57:32.570Z,73.37
2023-11-16T03:59:59.222Z,73.41
2023-11-16T04:02:25.739Z,72.97
2023-11-16T04:04:52.741Z,72.73
2023-11-16T04:07:19.190Z,73.05
2023-11-16T04:09:45.681Z,74.70
2023-11-16T04:12:12.191Z,74.25
2023-11-16T04:14:44.605Z,74.77
2023-11-16T04:17:14.586Z,75.02
2023-11-16T04:19:41.164Z,75.31
2023-11-16T04:22:07.968Z,74.92
2023-11-16T04:24:41.014Z,74.84
2023-11-16T04:27:08.348Z,74.91
2023-11-16T04:29:35.412Z,74.34
2023-11-16T04:32:02.649Z,74.61
2023-11-16T04:34:29.222Z,74.62
2023-11-16T04:36:57.562Z,74.42
2023-11-16T04:39:24.032Z,74.24
2023-11-16T04:41:50.692Z,74.46
2023-11-16T04:44:17.145Z,73.96
2023-11-16T04:46:53.097Z,74.19
2023-11-16T04:49:21.229Z,73.42
2023-11-16T04:51:48.182Z,73.46
2023-11-16T04:54:14.675Z,73.15
2023-11-16T04:56:41.122Z,73.02
2023-11-16T04:59:09.422Z,73.24
2023-11-16T05:01:36.129Z,73.28
2023-11-16T05:04:03.472Z,73.44
2023-11-16T05:06:30.120Z,73.19
2023-11-16T05:08:56.629Z,73.61
2023-11-16T05:11:24.713Z,73.54
2023-11-16T05:13:51.788Z,73.18
2023-11-16T05:16:18.451Z,73.14
2023-11-16T05:18:45.149Z,72.70
2023-11-16T05:21:16.921Z,73.16
2023-11-16T05:23:44.512Z,73.33
2023-11-16T05:26:11.871Z,73.30
2023-11-16T05:28:38.319Z,73.36
2023-11-16T05:31:05.577Z,73.05
2023-11-16T05:33:33.308Z,72.79
2023-11-16T05:36:00.460Z,72.96
2023-11-16T05:38:26.967Z,73.11
2023-11-16T05:40:53.793Z,73.18
2023-11-16T05:43:21.176Z,72.84
2023-11-16T05:45:47.979Z,72.76
2023-11-16T05:48:15.480Z,72.76
2023-11-16T05:50:43.699Z,72.78
2023-11-16T05:53:10.887Z,72.34
2023-11-16T05:55:37.391Z,72.38
2023-11-16T05:58:06.736Z,72.59
2023-11-16T06:00:34.602Z,72.58
2023-11-16T06:03:02.743Z,72.84
2023-11-16T06:05:29.446Z,72.94
2023-11-16T06:07:56.427Z,72.88
2023-11-16T06:10:24.282Z,72.62
2023-11-16T06:12:52.644Z,72.81
2023-11-16T06:15:22.083Z,72.57
2023-11-16T06:17:48.617Z,72.80
2023-11-16T06:20:16.265Z,73.16
2023-11-16T06:22:42.707Z,73.21
2023-11-16T06:25:11.997Z,73.15
2023-11-16T06:27:39.835Z,72.74
2023-11-16T06:30:09.982Z,72.59
2023-11-16T06:32:37.856Z,72.81
2023-11-16T06:35:04.887Z,72.49
2023-11-16T06:37:33.170Z,72.68
2023-11-16T06:40:00.029Z,72.40
2023-11-16T06:42:26.732Z,72.51
2023-11-16T06:44:53.442Z,73.19
2023-11-16T06:47:20.886Z,73.51
2023-11-16T06:49:49.267Z,73.78
2023-11-16T06:52:18.075Z,73.00
2023-11-16T06:54:44.733Z,73.28
2023-11-16T06:57:12.032Z,73.45
2023-11-16T06:59:39.064Z,73.59
2023-11-16T07:02:09.062Z,73.60
2023-11-16T07:04:37.364Z,73.91
2023-11-16T07:07:04.917Z,73.90
2023-11-16T07:09:32.284Z,73.87
2023-11-16T07:12:00.658Z,74.03
2023-11-16T07:14:36.693Z,74.38
2023-11-16T07:17:12.932Z,74.22
2023-11-16T07:19:39.697Z,74.06
2023-11-16T07:22:06.711Z,74.03
2023-11-16T07:24:34.225Z,73.74
2023-11-16T07:27:02.873Z,74.02
2023-11-16T07:29:30.643Z,73.96
2023-11-16T07:31:57.278Z,73.99
2023-11-16T07:34:25.106Z,74.05
2023-11-16T07:36:51.642Z,74.35
2023-11-16T07:39:18.175Z,74.69
2023-11-16T07:41:45.961Z,74.53
2023-11-16T07:44:13.042Z,73.79
2023-11-16T07:46:40.086Z,74.06
2023-11-16T07:49:07.012Z,73.60
2023-11-16T07:51:33.939Z,73.87
2023-11-16T07:54:05.202Z,74.83
2023-11-16T07:56:32.786Z,74.66
2023-11-16T07:59:01.035Z,74.33
2023-11-16T08:01:39.967Z,74.39
2023-11-16T08:04:07.185Z,74.06
2023-11-16T08:06:36.574Z,73.85
2023-11-16T08:09:03.403Z,74.36
2023-11-16T08:11:31.169Z,74.60
2023-11-16T08:13:58.414Z,74.87
2023-11-16T08:16:25.159Z,74.58
2023-11-16T08:18:53.448Z,74.40
2023-11-16T08:21:20.494Z,74.05
2023-11-16T08:23:51.842Z,73.98
2023-11-16T08:26:20.142Z,74.46
2023-11-16T08:28:48.546Z,74.09
2023-11-16T08:31:15.955Z,73.98
2023-11-16T08:33:43.906Z,74.09
2023-11-16T08:36:14.539Z,73.92
2023-11-16T08:38:43.682Z,73.68
2023-11-16T08:41:18.330Z,73.63
2023-11-16T08:43:51.476Z,73.33
2023-11-16T08:46:26.626Z,73.07
2023-11-16T08:48:54.323Z,73.18
2023-11-16T08:51:24.434Z,72.95
2023-11-16T08:53:55.509Z,73.20
2023-11-16T08:56:27.108Z,73.46
2023-11-16T08:59:08.309Z,73.13
2023-11-16T09:01:39.541Z,73.88
2023-11-16T09:04:07.696Z,75.30
2023-11-16T09:06:35.215Z,76.67
2023-11-16T09:09:09.953Z,77.63
2023-11-16T09:11:37.210Z,78.09
2023-11-16T09:14:05.162Z,78.79
2023-11-16T09:16:32.821Z,79.00
2023-11-16T09:18:59.582Z,79.64
2023-11-16T09:21:27.532Z,80.42
2023-11-16T09:23:55.577Z,80.88
2023-11-16T09:26:22.282Z,81.51
2023-11-16T09:28:58.279Z,80.96
2023-11-16T09:31:32.575Z,81.14
2023-11-16T09:34:01.538Z,81.02
2023-11-16T09:36:30.731Z,81.81
2023-11-16T09:38:59.056Z,81.76
2023-11-16T09:41:29.755Z,82.37
2023-11-16T09:44:02.691Z,81.67
2023-11-16T09:46:32.846Z,80.43
2023-11-16T09:49:00.712Z,80.28
2023-11-16T09:51:30.452Z,81.00
2023-11-16T09:54:02.417Z,81.65
2023-11-16T09:56:36.484Z,81.54
2023-11-16T09:59:28.693Z,82.19
2023-11-16T10:02:09.796Z,82.74
2023-11-16T10:04:42.726Z,81.36
2023-11-16T10:07:17.946Z,80.53
2023-11-16T10:09:45.448Z,80.27
2023-11-16T10:12:12.699Z,80.54
2023-11-16T10:14:41.082Z,80.54
2023-11-16T10:17:08.501Z,80.37
2023-11-16T10:19:35.764Z,81.05
2023-11-16T10:22:02.780Z,81.77
2023-11-16T10:24:29.407Z,82.43
2023-11-16T10:26:56.253Z,80.76
2023-11-16T10:29:23.464Z,79.87
2023-11-16T10:31:53.091Z,79.13
2023-11-16T10:34:24.679Z,79.52
2023-11-16T10:36:56.341Z,78.72
2023-11-16T10:39:25.685Z,77.80
2023-11-16T10:41:53.240Z,77.16
2023-11-16T10:44:25.400Z,76.29
2023-11-16T10:46:52.948Z,75.65
2023-11-16T10:49:19.808Z,75.30
2023-11-16T10:51:51.477Z,74.70
2023-11-16T10:54:21.405Z,74.65
2023-11-16T10:56:53.237Z,75.24
2023-11-16T10:59:22.772Z,74.99
2023-11-16T11:01:49.440Z,74.21
2023-11-16T11:04:16.771Z,74.08
2023-11-16T11:06:43.697Z,73.47
2023-11-16T11:09:17.007Z,72.50
2023-11-16T11:11:45.481Z,71.89
2023-11-16T11:14:14.355Z,71.61
2023-11-16T11:16:41.774Z,71.81
2023-11-16T11:19:10.722Z,71.41
2023-11-16T11:21:49.111Z,70.41
2023-11-16T11:24:15.577Z,69.68
2023-11-16T11:26:49.602Z,69.67
2023-11-16T11:29:17.154Z,68.90
2023-11-16T11:32:07.136Z,68.63
2023-11-16T11:34:37.428Z,68.74
2023-11-16T11:37:08.575Z,68.05
2023-11-16T11:39:42.136Z,67.78
2023-11-16T11:42:10.592Z,67.75
2023-11-16T11:44:37.101Z,69.52
2023-11-16T11:47:05.271Z,71.08
2023-11-16T11:49:31.781Z,71.54
2023-11-16T11:52:00.872Z,76.34
2023-11-16T11:54:38.170Z,76.18
2023-11-16T11:57:06.406Z,76.24
2023-11-16T11:59:33.178Z,75.09
2023-11-16T12:02:10.322Z,73.81
2023-11-16T12:04:38.102Z,73.39
2023-11-16T12:07:09.498Z,72.71
2023-11-16T12:09:45.479Z,72.61
2023-11-16T12:12:12.403Z,73.05
2023-11-16T12:14:47.622Z,73.22
2023-11-16T12:17:16.649Z,74.77
2023-11-16T12:19:44.068Z,74.08
2023-11-16T12:22:11.929Z,75.20
2023-11-16T12:24:38.546Z,75.03
2023-11-16T12:27:06.896Z,74.25
2023-11-16T12:29:34.353Z,73.63
2023-11-16T12:32:02.749Z,73.76
2023-11-16T12:34:29.596Z,74.33
2023-11-16T12:36:56.864Z,73.73
2023-11-16T12:39:26.701Z,73.69
2023-11-16T12:41:54.821Z,74.69
2023-11-16T12:44:23.999Z,75.24
2023-11-16T12:46:51.388Z,76.10
2023-11-16T12:49:19.551Z,78.04
2023-11-16T12:51:46.014Z,78.68
2023-11-16T12:54:12.465Z,78.58
2023-11-16T12:56:39.126Z,78.80
2023-11-16T12:59:10.754Z,78.03
2023-11-16T13:01:40.258Z,78.85
2023-11-16T13:04:08.029Z,79.64
2023-11-16T13:06:34.886Z,79.09
2023-11-16T13:09:01.325Z,78.43
2023-11-16T13:11:27.929Z,77.38
2023-11-16T13:13:54.441Z,76.53
2023-11-16T13:16:21.277Z,76.41
2023-11-16T13:18:50.208Z,75.93
2023-11-16T13:21:16.769Z,76.25
2023-11-16T13:23:43.699Z,75.85
2023-11-16T13:26:11.312Z,75.65
2023-11-16T13:28:38.136Z,75.18
2023-11-16T13:31:05.055Z,74.93
2023-11-16T13:33:32.714Z,74.75
2023-11-16T13:36:00.305Z,73.75
2023-11-16T13:38:28.284Z,73.11
2023-11-16T13:40:55.132Z,72.50
2023-11-16T13:43:21.889Z,72.92
2023-11-16T13:45:48.483Z,71.12
2023-11-16T13:48:18.405Z,70.48
2023-11-16T13:50:44.980Z,70.81
2023-11-16T13:53:11.621Z,70.92
2023-11-16T13:55:38.092Z,70.86
2023-11-16T13:58:05.096Z,70.77
2023-11-16T14:00:33.144Z,71.74
2023-11-16T14:02:59.982Z,71.92
2023-11-16T14:05:26.679Z,72.70
2023-11-16T14:07:54.550Z,72.57
2023-11-16T14:10:24.803Z,72.94
2023-11-16T14:12:53.892Z,73.65
2023-11-16T14:15:21.776Z,73.63
2023-11-16T14:17:48.617Z,73.85
2023-11-16T14:20:15.131Z,73.59
2023-11-16T14:22:41.596Z,73.55
2023-11-16T14:25:08.575Z,73.95
2023-11-16T14:27:38.087Z,72.93
2023-11-16T14:30:05.736Z,71.18
2023-11-16T14:32:32.290Z,70.20
2023-11-16T14:35:14.200Z,69.98
2023-11-16T14:37:46.632Z,68.71
2023-11-16T14:40:13.781Z,68.99
2023-11-16T14:42:40.396Z,68.72
2023-11-16T14:45:07.571Z,68.01
2023-11-16T14:47:39.509Z,68.56
2023-11-16T14:50:10.108Z,69.06
2023-11-16T14:52:37.605Z,68.27
2023-11-16T14:55:08.072Z,69.58
2023-11-16T14:57:35.348Z,69.84
2023-11-16T15:00:02.662Z,70.73
2023-11-16T15:02:29.673Z,71.61
2023-11-16T15:05:04.993Z,71.91
2023-11-16T15:07:36.549Z,71.13
2023-11-16T15:10:06.605Z,71.36
2023-11-16T15:12:34.594Z,70.60
2023-11-16T15:15:01.579Z,70.48
2023-11-16T15:17:28.297Z,70.02
2023-11-16T15:19:55.088Z,70.40
2023-11-16T15:22:21.915Z,71.67
2023-11-16T15:24:48.919Z,70.88
2023-11-16T15:27:15.495Z,70.15
2023-11-16T15:29:41.999Z,69.86
2023-11-16T15:32:18.597Z,70.18
2023-11-16T15:34:45.252Z,72.40
2023-11-16T15:37:12.788Z,72.67
2023-11-16T15:39:40.070Z,73.25
2023-11-16T15:42:08.199Z,73.96
2023-11-16T15:44:34.961Z,72.90
2023-11-16T15:47:01.561Z,73.39
2023-11-16T15:49:28.524Z,73.88
2023-11-16T15:51:55.294Z,72.93
2023-11-16T15:54:21.733Z,72.51
2023-11-16T15:56:52.448Z,72.39
2023-11-16T15:59:20.434Z,72.58
2023-11-16T16:01:47.197Z,73.47
2023-11-16T16:04:13.842Z,73.19
2023-11-16T16:06:40.691Z,73.42
2023-11-16T16:09:09.260Z,74.06
2023-11-16T16:11:36.189Z,73.98
2023-11-16T16:14:02.646Z,73.08
2023-11-16T16:16:29.200Z,74.55
2023-11-16T16:18:56.784Z,74.42
2023-11-16T16:21:23.425Z,73.90
2023-11-16T16:23:50.154Z,77.07
2023-11-16T16:26:16.858Z,76.54
2023-11-16T16:28:43.689Z,76.87
2023-11-16T16:31:20.267Z,80.65
2023-11-16T16:33:46.971Z,79.71
2023-11-16T16:36:13.493Z,78.38
2023-11-16T16:38:40.235Z,77.88
2023-11-16T16:41:07.745Z,77.99
2023-11-16T16:43:34.249Z,77.57
2023-11-16T16:46:01.174Z,79.13
2023-11-16T16:48:27.915Z,80.48
2023-11-16T16:50:54.415Z,80.60
2023-11-16T16:53:21.104Z,81.34
2023-11-16T16:55:47.788Z,81.34
2023-11-16T16:58:14.430Z,82.75
2023-11-16T17:00:41.022Z,82.78
2023-11-16T17:03:07.647Z,82.95
2023-11-16T17:05:34.209Z,83.24
2023-11-16T17:08:00.755Z,84.46
2023-11-16T17:10:29.543Z,84.74
2023-11-16T17:12:56.370Z,85.85
2023-11-16T17:15:23.467Z,86.54
2023-11-16T17:17:49.938Z,87.59
2023-11-16T17:20:17.928Z,89.36
2023-11-16T17:22:44.360Z,89.12
2023-11-16T17:25:12.792Z,89.70
2023-11-16T17:27:41.357Z,89.98
2023-11-16T17:30:09.463Z,90.65
2023-11-16T17:32:36.380Z,90.66
2023-11-16T17:35:04.155Z,90.74
2023-11-16T17:37:30.630Z,90.75
2023-11-16T17:39:57.160Z,90.43
2023-11-16T17:42:23.628Z,90.37
2023-11-16T17:44:51.871Z,89.74
2023-11-16T17:47:18.275Z,89.67
2023-11-16T17:49:45.538Z,88.90
2023-11-16T17:52:12.240Z,88.36
2023-11-16T17:54:39.699Z,89.15
2023-11-16T17:57:06.361Z,88.71
2023-11-16T17:59:32.894Z,87.72
2023-11-16T18:01:59.426Z,88.49
2023-11-16T18:04:26.033Z,87.83
2023-11-16T18:06:54.320Z,87.62
2023-11-16T18:09:20.818Z,86.61
2023-11-16T18:11:48.078Z,86.88
2023-11-16T18:14:14.488Z,87.19
2023-11-16T18:16:40.919Z,87.48
2023-11-16T18:19:11.159Z,87.53
2023-11-16T18:21:37.956Z,87.19
2023-11-16T18:24:04.853Z,86.55
2023-11-16T18:26:32.996Z,86.70
2023-11-16T18:28:59.455Z,86.91
2023-11-16T18:31:26.030Z,86.62
2023-11-16T18:33:53.015Z,86.42
2023-11-16T18:36:22.522Z,86.69
2023-11-16T18:38:50.425Z,86.76
2023-11-16T18:41:17.892Z,85.63
2023-11-16T18:43:44.919Z,85.34
2023-11-16T18:46:11.550Z,83.81
2023-11-16T18:48:39.845Z,84.47
2023-11-16T18:51:06.590Z,85.65
2023-11-16T18:53:38.109Z,85.01
2023-11-16T18:56:13.073Z,83.69
2023-11-16T18:58:40.169Z,85.86
2023-11-16T19:01:07.009Z,86.69
2023-11-16T19:03:34.320Z,87.24
2023-11-16T19:06:01.733Z,87.11
2023-11-16T19:08:30.331Z,86.48
2023-11-16T19:10:56.831Z,85.47
2023-11-16T19:13:23.287Z,85.79
2023-11-16T19:15:49.716Z,85.39
2023-11-16T19:18:16.239Z,86.22
2023-11-16T19:20:42.756Z,85.63
2023-11-16T19:23:13.077Z,87.19
2023-11-16T19:25:41.054Z,86.17
2023-11-16T19:28:08.552Z,86.23
2023-11-16T19:30:35.748Z,85.19
2023-11-16T19:33:02.812Z,85.20
2023-11-16T19:35:29.316Z,86.14
2023-11-16T19:37:55.732Z,86.43
2023-11-16T19:40:30.587Z,85.19
2023-11-16T19:43:06.584Z,84.82
2023-11-16T19:45:33.409Z,85.41
2023-11-16T19:47:59.859Z,86.31
2023-11-16T19:50:26.608Z,85.49
2023-11-16T19:52:53.029Z,85.14
2023-11-16T19:55:19.492Z,85.30
2023-11-16T19:57:46.066Z,86.07
2023-11-16T20:00:17.124Z,85.51
2023-11-16T20:02:44.155Z,86.37
2023-11-16T20:05:10.928Z,85.72
2023-11-16T20:07:37.479Z,85.47
2023-11-16T20:10:07.222Z,83.63
2023-11-16T20:12:35.155Z,85.33
2023-11-16T20:15:01.823Z,84.38
2023-11-16T20:17:28.812Z,84.32
2023-11-16T20:19:57.065Z,83.22
2023-11-16T20:22:23.880Z,82.61
2023-11-16T20:24:51.062Z,81.98
2023-11-16T20:27:17.557Z,80.64
2023-11-16T20:29:44.081Z,81.39
2023-11-16T20:32:10.528Z,79.99
2023-11-16T20:34:37.357Z,81.09
2023-11-16T20:37:06.351Z,80.93
2023-11-16T20:39:35.680Z,80.07
2023-11-16T20:42:05.023Z,79.84
2023-11-16T20:44:31.853Z,79.34
2023-11-16T20:46:58.298Z,79.27
2023-11-16T20:49:25.868Z,79.61
2023-11-16T20:51:53.617Z,78.75
2023-11-16T20:54:20.049Z,79.08
2023-11-16T20:56:47.192Z,76.36
2023-11-16T20:59:14.204Z,76.23
2023-11-16T21:01:40.681Z,76.61
2023-11-16T21:04:09.032Z,76.71
2023-11-16T21:06:36.422Z,76.64
2023-11-16T21:09:10.354Z,76.82
2023-11-16T21:11:38.070Z,75.75
2023-11-16T21:14:08.062Z,77.19
2023-11-16T21:16:34.653Z,75.30
2023-11-16T21:19:01.252Z,75.30
2023-11-16T21:21:28.313Z,75.10
2023-11-16T21:23:54.836Z,75.43
2023-11-16T21:26:21.251Z,74.75
2023-11-16T21:28:48.232Z,74.99
2023-11-16T21:31:14.844Z,74.30
2023-11-16T21:33:41.319Z,73.38
2023-11-16T21:36:09.367Z,74.46
2023-11-16T21:38:35.849Z,73.33
2023-11-16T21:41:03.541Z,73.08
2023-11-16T21:43:29.950Z,73.45
2023-11-16T21:45:56.575Z,74.41
2023-11-16T21:48:23.151Z,76.88
2023-11-16T21:50:49.721Z,78.41
2023-11-16T21:53:19.629Z,78.50
2023-11-16T21:55:46.381Z,79.36
2023-11-16T21:58:12.862Z,80.25
2023-11-16T22:00:39.332Z,81.31
2023-11-16T22:03:05.855Z,81.58
2023-11-16T22:05:33.137Z,81.21
2023-11-16T22:08:00.073Z,81.72
2023-11-16T22:10:26.718Z,82.33
2023-11-16T22:12:53.730Z,84.33
2023-11-16T22:15:20.704Z,84.86
2023-11-16T22:17:49.662Z,84.70
2023-11-16T22:20:17.926Z,84.89
2023-11-16T22:22:47.363Z,85.64
2023-11-16T22:25:14.458Z,84.81
2023-11-16T22:27:43.819Z,83.10
2023-11-16T22:30:12.328Z,82.42
2023-11-16T22:32:40.670Z,81.37
2023-11-16T22:35:08.147Z,82.88
2023-11-16T22:37:36.894Z,82.72
2023-11-16T22:40:05.129Z,83.27
2023-11-16T22:42:36.477Z,83.09
2023-11-16T22:45:04.269Z,83.39
2023-11-16T22:47:31.383Z,83.46
2023-11-16T22:49:57.911Z,84.74
2023-11-16T22:52:24.424Z,84.85
2023-11-16T22:54:50.871Z,85.90
2023-11-16T22:57:17.376Z,83.54
2023-11-16T22:59:43.909Z,80.44
2023-11-16T23:02:10.394Z,80.02
2023-11-16T23:04:38.171Z,80.00
2023-11-16T23:07:10.648Z,80.45
2023-11-16T23:09:38.030Z,79.93
2023-11-16T23:12:08.085Z,79.00
2023-11-16T23:14:35.492Z,78.93
2023-11-16T23:17:02.005Z,77.48
2023-11-16T23:19:28.902Z,78.26
2023-11-16T23:21:55.402Z,78.90
2023-11-16T23:24:21.901Z,80.38
2023-11-16T23:26:51.911Z,79.85
2023-11-16T23:29:18.348Z,80.28
2023-11-16T23:31:44.931Z,81.30
2023-11-16T23:34:11.772Z,82.67
2023-11-16T23:36:38.261Z,81.65
2023-11-16T23:39:04.801Z,79.94
2023-11-16T23:41:31.358Z,80.68
2023-11-16T23:43:57.884Z,81.40
2023-11-16T23:46:24.419Z,83.13
2023-11-16T23:48:51.022Z,84.34
2023-11-16T23:51:21.653Z,84.42
2023-11-16T23:53:48.731Z,83.95
2023-11-16T23:56:15.291Z,82.14
2023-11-16T23:58:41.808Z,82.47
